Shirahamamaru — JG4872 — position and weather

sailwx.info

Track history (hours):
 
Tides and Currents Weather Stations Pressure Air Temp Water Temp Dewpoint Dewpoint Depression Visibility Wind Speed Wind Dir Waves Ship Positions

Shirahamamaru

Last reported at 2017-Nov-20 00:00 UTC. Time now 2017-Nov-20 00:20 UTC.
Position N 35°10' E 139°49'.

Length 79 m; draft 3.2 m.

Type: Passenger vessel. MMSI: 431000239.

Date/timePositionNaut miles runAvg speedWind from/ knotsBaromVisibWave heightAir tempDewpointWater temp
2017-Nov-20 00:00N 35°10' E 139°49'5 9.9
2017-Nov-19 23:30N 35°13' E 139°44'1 2.0
2017-Nov-19 23:00N 35°13' E 139°43'3 6.7
2017-Nov-19 22:30N 35°11' E 139°46'3 5.0
2017-Nov-19 22:00N 35°10' E 139°49'510.1
2017-Nov-19 21:30N 35°13' E 139°44'1 1.7
2017-Nov-19 21:00N 35°13' E 139°43'0 0.0
2017-Nov-19 11:14N 35°13' E 139°43'1 2.3
2017-Nov-19 11:00N 35°13' E 139°44'510.7
2017-Nov-19 10:30N 35°10' E 139°49'0 0.0
2017-Nov-19 10:00N 35°10' E 139°49'4 8.4
2017-Nov-19 09:30N 35°13' E 139°45'2 3.9
2017-Nov-19 09:00N 35°13' E 139°43'4 8.8
2017-Nov-19 08:30N 35°11' E 139°48'1 2.9
2017-Nov-19 08:00N 35°10' E 139°49'510.1
2017-Nov-19 07:30N 35°13' E 139°44'1 1.7
2017-Nov-19 07:00N 35°13' E 139°43'5 9.7
2017-Nov-19 06:30N 35°11' E 139°48'1 2.0
2017-Nov-19 06:00N 35°10' E 139°49'510.3
2017-Nov-19 05:30N 35°13' E 139°44'1 1.5
2017-Nov-19 05:00N 35°13' E 139°43'4 7.1
2017-Nov-19 04:30N 35°12' E 139°47'2 4.7
2017-Nov-19 04:00N 35°10' E 139°49'4 8.1
2017-Nov-19 03:30N 35°12' E 139°45'2 3.8
2017-Nov-19 03:00N 35°13' E 139°43'4 9.0
2017-Nov-19 02:30N 35°11' E 139°48'1 2.9
2017-Nov-19 02:00N 35°10' E 139°49'510.2
2017-Nov-19 01:30N 35°13' E 139°44'1 1.6
2017-Nov-19 01:00N 35°13' E 139°43'5 9.5
2017-Nov-19 00:30N 35°10' E 139°48'1 2.4
2017-Nov-19 00:00N 35°10' E 139°49'5 9.8
2017-Nov-18 23:30N 35°13' E 139°44'1 2.1
2017-Nov-18 23:00N 35°13' E 139°43'4 7.4
2017-Nov-18 22:30N 35°12' E 139°47'2 4.5
2017-Nov-18 22:00N 35°10' E 139°49'510.4
2017-Nov-18 21:29N 35°13' E 139°44'1 1.2
2017-Nov-18 20:59N 35°13' E 139°43'0 0.0
2017-Nov-18 11:11N 35°13' E 139°43'1 5.4
2017-Nov-18 11:00N 35°13' E 139°44'5 9.9
2017-Nov-18 10:30N 35°10' E 139°49'0 0.0
2017-Nov-18 10:00N 35°10' E 139°49'4 7.6
2017-Nov-18 09:30N 35°12' E 139°45'2 4.2
2017-Nov-18 09:00N 35°13' E 139°43'5 9.1
2017-Nov-18 08:30N 35°11' E 139°48'1 2.7
2017-Nov-18 08:00N 35°10' E 139°49'510.2
2017-Nov-18 07:30N 35°13' E 139°44'1 1.6
2017-Nov-18 07:00N 35°13' E 139°43'4 8.8
2017-Nov-18 06:30N 35°11' E 139°48'1 2.9
2017-Nov-18 06:00N 35°10' E 139°49'5 9.7
2017-Nov-18 05:30N 35°13' E 139°44'1 2.2
2017-Nov-18 05:00N 35°13' E 139°43'4 7.0
2017-Nov-18 04:30N 35°11' E 139°47'2 4.7
2017-Nov-18 04:00N 35°10' E 139°49'4 7.8
2017-Nov-18 03:30N 35°12' E 139°45'2 4.0
2017-Nov-18 03:00N 35°13' E 139°43'4 8.8
2017-Nov-18 02:30N 35°11' E 139°48'2 3.0
2017-Nov-18 02:00N 35°10' E 139°49'510.0
2017-Nov-18 01:30N 35°13' E 139°44'1 1.8
2017-Nov-18 01:00N 35°13' E 139°43'4 9.2
2017-Nov-18 00:30N 35°11' E 139°48'1 2.8
2017-Nov-18 00:00N 35°10' E 139°49'5 9.8
2017-Nov-17 23:30N 35°13' E 139°44'1 2.0
2017-Nov-17 23:00N 35°13' E 139°43'4 7.2
2017-Nov-17 22:30N 35°11' E 139°47'2 4.5
2017-Nov-17 22:00N 35°10' E 139°49'5 9.7
2017-Nov-17 21:30N 35°13' E 139°44'1 2.1
2017-Nov-17 21:00N 35°13' E 139°43'0 0.0
2017-Nov-17 11:13N 35°13' E 139°43'1 4.4
2017-Nov-17 11:00N 35°13' E 139°44'510.0
2017-Nov-17 10:30N 35°10' E 139°49'0 0.0
2017-Nov-17 10:00N 35°10' E 139°49'4 8.2
2017-Nov-17 09:30N 35°12' E 139°45'2 3.5
2017-Nov-17 09:00N 35°13' E 139°43'5 9.0
2017-Nov-17 08:30N 35°11' E 139°48'1 2.7
2017-Nov-17 08:00N 35°10' E 139°49'5 9.5
2017-Nov-17 07:30N 35°13' E 139°44'1 2.3
2017-Nov-17 07:00N 35°13' E 139°43'5 8.9
2017-Nov-17 06:30N 35°11' E 139°48'1 2.7
2017-Nov-17 06:00N 35°10' E 139°49'0 0.0
2017-Nov-17 05:30N 35°10' E 139°49'5 9.9
2017-Nov-17 05:00N 35°13' E 139°44'1 1.9
2017-Nov-17 04:30N 35°13' E 139°43'0 0.0
2017-Nov-17 04:00N 35°13' E 139°43'1 2.7
2017-Nov-17 03:31N 35°13' E 139°45'5 9.3
2017-Nov-17 03:00N 35°10' E 139°49'0 0.0
2017-Nov-17 02:30N 35°10' E 139°49'0 0.0
2017-Nov-17 02:00N 35°10' E 139°49'510.1
2017-Nov-17 01:30N 35°13' E 139°44'1 1.7
2017-Nov-17 01:00N 35°13' E 139°43'4 9.0
2017-Nov-17 00:30N 35°11' E 139°47'1 2.7
2017-Nov-17 00:00N 35°10' E 139°49'510.3
2017-Nov-16 23:30N 35°13' E 139°44'1 1.5
2017-Nov-16 23:00N 35°13' E 139°43'3 7.0
2017-Nov-16 22:30N 35°12' E 139°47'2 4.9
2017-Nov-16 22:00N 35°10' E 139°49'5 9.8
2017-Nov-16 21:30N 35°13' E 139°44'1 2.1
2017-Nov-16 21:00N 35°13' E 139°43'0 0.0
2017-Nov-16 11:10N 35°13' E 139°43'0 2.5
2017-Nov-16 11:00N 35°13' E 139°43'611.2
2017-Nov-16 10:30N 35°10' E 139°49'0 0.0
2017-Nov-16 10:00N 35°10' E 139°49'4 8.7
2017-Nov-16 09:30N 35°13' E 139°45'2 3.4
2017-Nov-16 09:00N 35°13' E 139°43'4 8.9
2017-Nov-16 08:30N 35°11' E 139°48'2 3.1
2017-Nov-16 08:00N 35°10' E 139°49'5 9.6
2017-Nov-16 07:30N 35°13' E 139°44'1 2.2
2017-Nov-16 07:00N 35°13' E 139°43'4 8.9
2017-Nov-16 06:30N 35°11' E 139°48'1 2.9
2017-Nov-16 06:00N 35°10' E 139°49'0 0.0
2017-Nov-16 05:30N 35°10' E 139°49'5 9.8
2017-Nov-16 05:00N 35°13' E 139°44'1 1.9
2017-Nov-16 04:30N 35°13' E 139°43'0 0.0
2017-Nov-16 04:00N 35°13' E 139°43'1 1.2
2017-Nov-16 03:30N 35°13' E 139°44'510.7
2017-Nov-16 03:00N 35°10' E 139°49'0 0.0
2017-Nov-16 02:30N 35°10' E 139°49'0 0.0
2017-Nov-16 02:00N 35°10' E 139°49'510.1
2017-Nov-16 01:30N 35°13' E 139°44'1 1.6
2017-Nov-16 01:00N 35°13' E 139°43'4 8.9
2017-Nov-16 00:30N 35°11' E 139°48'1 2.7
2017-Nov-15 23:59N 35°10' E 139°49'510.4
2017-Nov-15 23:30N 35°13' E 139°44'1 1.8
2017-Nov-15 23:00N 35°13' E 139°43'3 7.0
2017-Nov-15 22:30N 35°12' E 139°47'2 4.8
2017-Nov-15 22:00N 35°10' E 139°49'510.3
2017-Nov-15 21:30N 35°13' E 139°44'1 1.5
2017-Nov-15 21:00N 35°13' E 139°43'0 0.0
2017-Nov-15 11:11N 35°13' E 139°43'1 3.8
2017-Nov-15 11:00N 35°13' E 139°44'510.6
2017-Nov-15 10:31N 35°10' E 139°49'0 0.0
2017-Nov-15 10:00N 35°10' E 139°49'4 7.8
2017-Nov-15 09:30N 35°12' E 139°45'2 3.9
2017-Nov-15 09:01N 35°13' E 139°43'4 8.9
2017-Nov-15 08:30N 35°11' E 139°48'1 2.8
2017-Nov-15 08:00N 35°10' E 139°49'510.4
2017-Nov-15 07:30N 35°13' E 139°44'1 1.4
2017-Nov-15 07:00N 35°13' E 139°43'4 9.1
2017-Nov-15 06:30N 35°11' E 139°48'1 2.8
2017-Nov-15 06:00N 35°10' E 139°49'0 0.0
2017-Nov-15 05:30N 35°10' E 139°49'510.7
2017-Nov-15 05:00N 35°13' E 139°44'1 1.4
2017-Nov-15 04:30N 35°13' E 139°43'510.4
2017-Nov-15 04:00N 35°11' E 139°48'2 4.7
2017-Nov-15 03:30N 35°12' E 139°46'3 5.8
2017-Nov-15 03:00N 35°13' E 139°43'0 0.0
2017-Nov-15 02:30N 35°13' E 139°43'0 0.3
2017-Nov-15 02:00N 35°13' E 139°43'510.8
2017-Nov-15 01:30N 35°11' E 139°49'0 0.7
2017-Nov-15 00:59N 35°10' E 139°49'611.7
2017-Nov-15 00:30N 35°13' E 139°43'0 0.5
2017-Nov-15 00:00N 35°13' E 139°43'4 7.4
2017-Nov-14 23:30N 35°11' E 139°47'2 4.3
2017-Nov-14 23:00N 35°10' E 139°49'510.0
2017-Nov-14 22:30N 35°13' E 139°44'1 1.7
2017-Nov-14 22:00N 35°13' E 139°43'4 9.0
2017-Nov-14 21:30N 35°11' E 139°48'1 2.8
2017-Nov-14 21:01N 35°10' E 139°49'0 0.0
2017-Nov-14 10:57N 35°10' E 139°49'4 9.2
2017-Nov-14 10:30N 35°12' E 139°45'2 3.7
2017-Nov-14 10:00N 35°13' E 139°43'510.8
2017-Nov-14 09:30N 35°11' E 139°49'1 1.0
2017-Nov-14 09:00N 35°10' E 139°49'611.6
2017-Nov-14 08:30N 35°13' E 139°43'1 1.6
2017-Nov-14 08:00N 35°13' E 139°44'510.2
2017-Nov-14 07:30N 35°10' E 139°49'0 0.1
2017-Nov-14 07:00N 35°10' E 139°49'611.6
2017-Nov-14 06:30N 35°13' E 139°43'0 0.6
2017-Nov-14 06:00N 35°13' E 139°43'0 0.0
2017-Nov-14 05:30N 35°13' E 139°43'2 4.9
2017-Nov-14 05:00N 35°12' E 139°46'3 6.8
2017-Nov-14 04:30N 35°10' E 139°49'0 0.0
2017-Nov-14 03:49N 35°10' E 139°49'3 9.6
2017-Nov-14 03:30N 35°12' E 139°46'3 5.8
2017-Nov-14 03:00N 35°13' E 139°43'0 0.0
2017-Nov-14 02:30N 35°13' E 139°43'0 0.4
2017-Nov-14 02:00N 35°13' E 139°43'610.9
2017-Nov-14 01:30N 35°10' E 139°49'0 0.9
2017-Nov-14 01:00N 35°10' E 139°49'611.7
2017-Nov-14 00:30N 35°13' E 139°43'0 0.4
2017-Nov-14 00:00N 35°13' E 139°43'4 7.2
2017-Nov-13 23:30N 35°12' E 139°47'2 4.7
2017-Nov-13 23:00N 35°10' E 139°49'5 9.9
2017-Nov-13 22:30N 35°13' E 139°44'1 1.8
2017-Nov-13 22:00N 35°13' E 139°43'0 0.0
2017-Nov-13 02:00N 35°13' E 139°43'510.9
2017-Nov-13 01:30N 35°10' E 139°49'0 0.7
2017-Nov-13 01:00N 35°10' E 139°49'611.6
2017-Nov-13 00:31N 35°13' E 139°43'0 0.5
2017-Nov-13 00:00N 35°13' E 139°43'4 7.0
2017-Nov-12 23:30N 35°11' E 139°47'2 4.6
2017-Nov-12 22:59N 35°10' E 139°49'510.0
2017-Nov-12 22:30N 35°13' E 139°44'1 2.2
2017-Nov-12 22:00N 35°13' E 139°43'4 8.9
2017-Nov-12 21:31N 35°11' E 139°48'1 2.8
2017-Nov-12 21:00N 35°10' E 139°49'0 0.0
2017-Nov-12 10:59N 35°10' E 139°49'4 8.3
2017-Nov-12 10:31N 35°13' E 139°45'2 3.9
2017-Nov-12 09:59N 35°13' E 139°43'611.3
2017-Nov-12 09:30N 35°10' E 139°49'0 0.9
2017-Nov-12 09:00N 35°10' E 139°49'611.6
2017-Nov-12 08:30N 35°13' E 139°43'1 1.8
2017-Nov-12 08:01N 35°13' E 139°44'5 9.7
2017-Nov-12 07:30N 35°10' E 139°49'0 0.5
2017-Nov-12 07:00N 35°10' E 139°49'611.5
2017-Nov-12 06:30N 35°13' E 139°43'0 0.4
2017-Nov-12 06:00N 35°13' E 139°43'4 9.0
2017-Nov-12 05:30N 35°11' E 139°48'1 2.7
2017-Nov-12 05:00N 35°10' E 139°49'510.2
2017-Nov-12 04:30N 35°13' E 139°44'1 1.8
2017-Nov-12 04:00N 35°13' E 139°43'510.8
2017-Nov-12 03:30N 35°11' E 139°49'1 1.0
2017-Nov-12 03:01N 35°10' E 139°49'611.5
2017-Nov-12 02:30N 35°13' E 139°43'0 0.5
2017-Nov-12 02:00N 35°13' E 139°43'611.1
2017-Nov-12 01:30N 35°10' E 139°49'0 0.5
2017-Nov-12 01:00N 35°10' E 139°49'611.4
2017-Nov-12 00:30N 35°13' E 139°43'0 0.5
2017-Nov-12 00:00N 35°13' E 139°43'4 7.0
2017-Nov-11 23:30N 35°12' E 139°47'2 4.9
2017-Nov-11 23:00N 35°10' E 139°49'510.1
2017-Nov-11 22:31N 35°13' E 139°44'1 1.8
2017-Nov-11 22:00N 35°13' E 139°43'4 8.8
2017-Nov-11 21:30N 35°11' E 139°48'1 2.9
2017-Nov-11 21:00N 35°10' E 139°49'0 0.0
2017-Nov-11 11:13N 35°10' E 139°49'0 0.0
2017-Nov-11 11:00N 35°10' E 139°49'4 8.3
2017-Nov-11 10:31N 35°13' E 139°45'2 3.7
2017-Nov-11 10:01N 35°13' E 139°43'510.7
2017-Nov-11 09:31N 35°11' E 139°48'0 0.6
2017-Nov-11 09:00N 35°10' E 139°49'611.3
2017-Nov-11 08:31N 35°13' E 139°43'1 1.2
2017-Nov-11 08:00N 35°13' E 139°44'510.7
2017-Nov-11 07:30N 35°10' E 139°49'0 0.2
2017-Nov-11 07:00N 35°10' E 139°49'611.6
2017-Nov-11 06:31N 35°13' E 139°43'0 0.5
2017-Nov-11 06:01N 35°13' E 139°43'5 9.3
2017-Nov-11 05:30N 35°11' E 139°48'0 1.0
2017-Nov-11 05:01N 35°11' E 139°48'510.3
2017-Nov-11 04:31N 35°13' E 139°43'0 0.0
2017-Nov-10 11:44N 35°13' E 139°43'0 1.2
2017-Nov-10 11:30N 35°13' E 139°43'611.4
2017-Nov-10 11:00N 35°10' E 139°49'4 8.0
2017-Nov-10 10:30N 35°12' E 139°45'2 4.0
2017-Nov-10 10:00N 35°13' E 139°43'510.7
2017-Nov-10 09:30N 35°11' E 139°49'0 0.3
2017-Nov-10 09:00N 35°10' E 139°49'511.1
2017-Nov-10 08:30N 35°13' E 139°43'1 1.0
2017-Nov-10 08:00N 35°13' E 139°44'510.8
2017-Nov-10 07:30N 35°10' E 139°49'0 0.1
2017-Nov-10 07:00N 35°10' E 139°49'611.7
2017-Nov-10 06:30N 35°13' E 139°43'0 0.6
2017-Nov-10 06:00N 35°13' E 139°43'0 0.0
2017-Nov-10 05:29N 35°13' E 139°43'3 5.7
2017-Nov-10 05:01N 35°12' E 139°46'3 6.3
2017-Nov-10 04:30N 35°10' E 139°49'0 0.0
2017-Nov-10 04:00N 35°10' E 139°49'3 5.9
2017-Nov-10 03:30N 35°12' E 139°46'3 5.9
2017-Nov-10 03:00N 35°13' E 139°43'0 0.0
2017-Nov-10 02:30N 35°13' E 139°43'0 0.4
2017-Nov-10 02:00N 35°13' E 139°43'510.8
2017-Nov-10 01:30N 35°11' E 139°49'1 1.0
2017-Nov-10 01:00N 35°10' E 139°49'611.7
2017-Nov-10 00:30N 35°13' E 139°43'0 0.5
2017-Nov-10 00:00N 35°13' E 139°43'  
Track history (hours):
 
Tides and Currents Weather Stations Pressure Air Temp Water Temp Dewpoint Dewpoint Depression Visibility Wind Speed Wind Dir Waves Ship Positions

Shirahamamaru

Last reported at 2017-Nov-20 00:00 UTC. Time now 2017-Nov-20 00:20 UTC.
Position N 35°10' E 139°49'.

Length 79 m; draft 3.2 m.

Type: Passenger vessel. MMSI: 431000239.

Date/timePositionNaut miles runAvg speedWind from/ knotsBaromVisibWave heightAir tempDewpointWater temp
2017-Nov-20 00:00N 35°10' E 139°49'5 9.9
2017-Nov-19 23:30N 35°13' E 139°44'1 2.0
2017-Nov-19 23:00N 35°13' E 139°43'3 6.7
2017-Nov-19 22:30N 35°11' E 139°46'3 5.0
2017-Nov-19 22:00N 35°10' E 139°49'510.1
2017-Nov-19 21:30N 35°13' E 139°44'1 1.7
2017-Nov-19 21:00N 35°13' E 139°43'0 0.0
2017-Nov-19 11:14N 35°13' E 139°43'1 2.3
2017-Nov-19 11:00N 35°13' E 139°44'510.7
2017-Nov-19 10:30N 35°10' E 139°49'0 0.0
2017-Nov-19 10:00N 35°10' E 139°49'4 8.4
2017-Nov-19 09:30N 35°13' E 139°45'2 3.9
2017-Nov-19 09:00N 35°13' E 139°43'4 8.8
2017-Nov-19 08:30N 35°11' E 139°48'1 2.9
2017-Nov-19 08:00N 35°10' E 139°49'510.1
2017-Nov-19 07:30N 35°13' E 139°44'1 1.7
2017-Nov-19 07:00N 35°13' E 139°43'5 9.7
2017-Nov-19 06:30N 35°11' E 139°48'1 2.0
2017-Nov-19 06:00N 35°10' E 139°49'510.3
2017-Nov-19 05:30N 35°13' E 139°44'1 1.5
2017-Nov-19 05:00N 35°13' E 139°43'4 7.1
2017-Nov-19 04:30N 35°12' E 139°47'2 4.7
2017-Nov-19 04:00N 35°10' E 139°49'4 8.1
2017-Nov-19 03:30N 35°12' E 139°45'2 3.8
2017-Nov-19 03:00N 35°13' E 139°43'4 9.0
2017-Nov-19 02:30N 35°11' E 139°48'1 2.9
2017-Nov-19 02:00N 35°10' E 139°49'510.2
2017-Nov-19 01:30N 35°13' E 139°44'1 1.6
2017-Nov-19 01:00N 35°13' E 139°43'5 9.5
2017-Nov-19 00:30N 35°10' E 139°48'1 2.4
2017-Nov-19 00:00N 35°10' E 139°49'5 9.8
2017-Nov-18 23:30N 35°13' E 139°44'1 2.1
2017-Nov-18 23:00N 35°13' E 139°43'4 7.4
2017-Nov-18 22:30N 35°12' E 139°47'2 4.5
2017-Nov-18 22:00N 35°10' E 139°49'510.4
2017-Nov-18 21:29N 35°13' E 139°44'1 1.2
2017-Nov-18 20:59N 35°13' E 139°43'0 0.0
2017-Nov-18 11:11N 35°13' E 139°43'1 5.4
2017-Nov-18 11:00N 35°13' E 139°44'5 9.9
2017-Nov-18 10:30N 35°10' E 139°49'0 0.0
2017-Nov-18 10:00N 35°10' E 139°49'4 7.6
2017-Nov-18 09:30N 35°12' E 139°45'2 4.2
2017-Nov-18 09:00N 35°13' E 139°43'5 9.1
2017-Nov-18 08:30N 35°11' E 139°48'1 2.7
2017-Nov-18 08:00N 35°10' E 139°49'510.2
2017-Nov-18 07:30N 35°13' E 139°44'1 1.6
2017-Nov-18 07:00N 35°13' E 139°43'4 8.8
2017-Nov-18 06:30N 35°11' E 139°48'1 2.9
2017-Nov-18 06:00N 35°10' E 139°49'5 9.7
2017-Nov-18 05:30N 35°13' E 139°44'1 2.2
2017-Nov-18 05:00N 35°13' E 139°43'4 7.0
2017-Nov-18 04:30N 35°11' E 139°47'2 4.7
2017-Nov-18 04:00N 35°10' E 139°49'4 7.8
2017-Nov-18 03:30N 35°12' E 139°45'2 4.0
2017-Nov-18 03:00N 35°13' E 139°43'4 8.8
2017-Nov-18 02:30N 35°11' E 139°48'2 3.0
2017-Nov-18 02:00N 35°10' E 139°49'510.0
2017-Nov-18 01:30N 35°13' E 139°44'1 1.8
2017-Nov-18 01:00N 35°13' E 139°43'4 9.2
2017-Nov-18 00:30N 35°11' E 139°48'1 2.8
2017-Nov-18 00:00N 35°10' E 139°49'5 9.8
2017-Nov-17 23:30N 35°13' E 139°44'1 2.0
2017-Nov-17 23:00N 35°13' E 139°43'4 7.2
2017-Nov-17 22:30N 35°11' E 139°47'2 4.5
2017-Nov-17 22:00N 35°10' E 139°49'5 9.7
2017-Nov-17 21:30N 35°13' E 139°44'1 2.1
2017-Nov-17 21:00N 35°13' E 139°43'0 0.0
2017-Nov-17 11:13N 35°13' E 139°43'1 4.4
2017-Nov-17 11:00N 35°13' E 139°44'510.0
2017-Nov-17 10:30N 35°10' E 139°49'0 0.0
2017-Nov-17 10:00N 35°10' E 139°49'4 8.2
2017-Nov-17 09:30N 35°12' E 139°45'2 3.5
2017-Nov-17 09:00N 35°13' E 139°43'5 9.0
2017-Nov-17 08:30N 35°11' E 139°48'1 2.7
2017-Nov-17 08:00N 35°10' E 139°49'5 9.5
2017-Nov-17 07:30N 35°13' E 139°44'1 2.3
2017-Nov-17 07:00N 35°13' E 139°43'5 8.9
2017-Nov-17 06:30N 35°11' E 139°48'1 2.7
2017-Nov-17 06:00N 35°10' E 139°49'0 0.0
2017-Nov-17 05:30N 35°10' E 139°49'5 9.9
2017-Nov-17 05:00N 35°13' E 139°44'1 1.9
2017-Nov-17 04:30N 35°13' E 139°43'0 0.0
2017-Nov-17 04:00N 35°13' E 139°43'1 2.7
2017-Nov-17 03:31N 35°13' E 139°45'5 9.3
2017-Nov-17 03:00N 35°10' E 139°49'0 0.0
2017-Nov-17 02:30N 35°10' E 139°49'0 0.0
2017-Nov-17 02:00N 35°10' E 139°49'510.1
2017-Nov-17 01:30N 35°13' E 139°44'1 1.7
2017-Nov-17 01:00N 35°13' E 139°43'4 9.0
2017-Nov-17 00:30N 35°11' E 139°47'1 2.7
2017-Nov-17 00:00N 35°10' E 139°49'510.3
2017-Nov-16 23:30N 35°13' E 139°44'1 1.5
2017-Nov-16 23:00N 35°13' E 139°43'3 7.0
2017-Nov-16 22:30N 35°12' E 139°47'2 4.9
2017-Nov-16 22:00N 35°10' E 139°49'5 9.8
2017-Nov-16 21:30N 35°13' E 139°44'1 2.1
2017-Nov-16 21:00N 35°13' E 139°43'0 0.0
2017-Nov-16 11:10N 35°13' E 139°43'0 2.5
2017-Nov-16 11:00N 35°13' E 139°43'611.2
2017-Nov-16 10:30N 35°10' E 139°49'0 0.0
2017-Nov-16 10:00N 35°10' E 139°49'4 8.7
2017-Nov-16 09:30N 35°13' E 139°45'2 3.4
2017-Nov-16 09:00N 35°13' E 139°43'4 8.9
2017-Nov-16 08:30N 35°11' E 139°48'2 3.1
2017-Nov-16 08:00N 35°10' E 139°49'5 9.6
2017-Nov-16 07:30N 35°13' E 139°44'1 2.2
2017-Nov-16 07:00N 35°13' E 139°43'4 8.9
2017-Nov-16 06:30N 35°11' E 139°48'1 2.9
2017-Nov-16 06:00N 35°10' E 139°49'0 0.0
2017-Nov-16 05:30N 35°10' E 139°49'5 9.8
2017-Nov-16 05:00N 35°13' E 139°44'1 1.9
2017-Nov-16 04:30N 35°13' E 139°43'0 0.0
2017-Nov-16 04:00N 35°13' E 139°43'1 1.2
2017-Nov-16 03:30N 35°13' E 139°44'510.7
2017-Nov-16 03:00N 35°10' E 139°49'0 0.0
2017-Nov-16 02:30N 35°10' E 139°49'0 0.0
2017-Nov-16 02:00N 35°10' E 139°49'510.1
2017-Nov-16 01:30N 35°13' E 139°44'1 1.6
2017-Nov-16 01:00N 35°13' E 139°43'4 8.9
2017-Nov-16 00:30N 35°11' E 139°48'1 2.7
2017-Nov-15 23:59N 35°10' E 139°49'510.4
2017-Nov-15 23:30N 35°13' E 139°44'1 1.8
2017-Nov-15 23:00N 35°13' E 139°43'3 7.0
2017-Nov-15 22:30N 35°12' E 139°47'2 4.8
2017-Nov-15 22:00N 35°10' E 139°49'510.3
2017-Nov-15 21:30N 35°13' E 139°44'1 1.5
2017-Nov-15 21:00N 35°13' E 139°43'0 0.0
2017-Nov-15 11:11N 35°13' E 139°43'1 3.8
2017-Nov-15 11:00N 35°13' E 139°44'510.6
2017-Nov-15 10:31N 35°10' E 139°49'0 0.0
2017-Nov-15 10:00N 35°10' E 139°49'4 7.8
2017-Nov-15 09:30N 35°12' E 139°45'2 3.9
2017-Nov-15 09:01N 35°13' E 139°43'4 8.9
2017-Nov-15 08:30N 35°11' E 139°48'1 2.8
2017-Nov-15 08:00N 35°10' E 139°49'510.4
2017-Nov-15 07:30N 35°13' E 139°44'1 1.4
2017-Nov-15 07:00N 35°13' E 139°43'4 9.1
2017-Nov-15 06:30N 35°11' E 139°48'1 2.8
2017-Nov-15 06:00N 35°10' E 139°49'0 0.0
2017-Nov-15 05:30N 35°10' E 139°49'510.7
2017-Nov-15 05:00N 35°13' E 139°44'1 1.4
2017-Nov-15 04:30N 35°13' E 139°43'510.4
2017-Nov-15 04:00N 35°11' E 139°48'2 4.7
2017-Nov-15 03:30N 35°12' E 139°46'3 5.8
2017-Nov-15 03:00N 35°13' E 139°43'0 0.0
2017-Nov-15 02:30N 35°13' E 139°43'0 0.3
2017-Nov-15 02:00N 35°13' E 139°43'510.8
2017-Nov-15 01:30N 35°11' E 139°49'0 0.7
2017-Nov-15 00:59N 35°10' E 139°49'611.7
2017-Nov-15 00:30N 35°13' E 139°43'0 0.5
2017-Nov-15 00:00N 35°13' E 139°43'4 7.4
2017-Nov-14 23:30N 35°11' E 139°47'2 4.3
2017-Nov-14 23:00N 35°10' E 139°49'510.0
2017-Nov-14 22:30N 35°13' E 139°44'1 1.7
2017-Nov-14 22:00N 35°13' E 139°43'4 9.0
2017-Nov-14 21:30N 35°11' E 139°48'1 2.8
2017-Nov-14 21:01N 35°10' E 139°49'0 0.0
2017-Nov-14 10:57N 35°10' E 139°49'4 9.2
2017-Nov-14 10:30N 35°12' E 139°45'2 3.7
2017-Nov-14 10:00N 35°13' E 139°43'510.8
2017-Nov-14 09:30N 35°11' E 139°49'1 1.0
2017-Nov-14 09:00N 35°10' E 139°49'611.6
2017-Nov-14 08:30N 35°13' E 139°43'1 1.6
2017-Nov-14 08:00N 35°13' E 139°44'510.2
2017-Nov-14 07:30N 35°10' E 139°49'0 0.1
2017-Nov-14 07:00N 35°10' E 139°49'611.6
2017-Nov-14 06:30N 35°13' E 139°43'0 0.6
2017-Nov-14 06:00N 35°13' E 139°43'0 0.0
2017-Nov-14 05:30N 35°13' E 139°43'2 4.9
2017-Nov-14 05:00N 35°12' E 139°46'3 6.8
2017-Nov-14 04:30N 35°10' E 139°49'0 0.0
2017-Nov-14 03:49N 35°10' E 139°49'3 9.6
2017-Nov-14 03:30N 35°12' E 139°46'3 5.8
2017-Nov-14 03:00N 35°13' E 139°43'0 0.0
2017-Nov-14 02:30N 35°13' E 139°43'0 0.4
2017-Nov-14 02:00N 35°13' E 139°43'610.9
2017-Nov-14 01:30N 35°10' E 139°49'0 0.9
2017-Nov-14 01:00N 35°10' E 139°49'611.7
2017-Nov-14 00:30N 35°13' E 139°43'0 0.4
2017-Nov-14 00:00N 35°13' E 139°43'4 7.2
2017-Nov-13 23:30N 35°12' E 139°47'2 4.7
2017-Nov-13 23:00N 35°10' E 139°49'5 9.9
2017-Nov-13 22:30N 35°13' E 139°44'1 1.8
2017-Nov-13 22:00N 35°13' E 139°43'0 0.0
2017-Nov-13 02:00N 35°13' E 139°43'510.9
2017-Nov-13 01:30N 35°10' E 139°49'0 0.7
2017-Nov-13 01:00N 35°10' E 139°49'611.6
2017-Nov-13 00:31N 35°13' E 139°43'0 0.5
2017-Nov-13 00:00N 35°13' E 139°43'4 7.0
2017-Nov-12 23:30N 35°11' E 139°47'2 4.6
2017-Nov-12 22:59N 35°10' E 139°49'510.0
2017-Nov-12 22:30N 35°13' E 139°44'1 2.2
2017-Nov-12 22:00N 35°13' E 139°43'4 8.9
2017-Nov-12 21:31N 35°11' E 139°48'1 2.8
2017-Nov-12 21:00N 35°10' E 139°49'0 0.0
2017-Nov-12 10:59N 35°10' E 139°49'4 8.3
2017-Nov-12 10:31N 35°13' E 139°45'2 3.9
2017-Nov-12 09:59N 35°13' E 139°43'611.3
2017-Nov-12 09:30N 35°10' E 139°49'0 0.9
2017-Nov-12 09:00N 35°10' E 139°49'611.6
2017-Nov-12 08:30N 35°13' E 139°43'1 1.8
2017-Nov-12 08:01N 35°13' E 139°44'5 9.7
2017-Nov-12 07:30N 35°10' E 139°49'0 0.5
2017-Nov-12 07:00N 35°10' E 139°49'611.5
2017-Nov-12 06:30N 35°13' E 139°43'0 0.4
2017-Nov-12 06:00N 35°13' E 139°43'4 9.0
2017-Nov-12 05:30N 35°11' E 139°48'1 2.7
2017-Nov-12 05:00N 35°10' E 139°49'510.2
2017-Nov-12 04:30N 35°13' E 139°44'1 1.8
2017-Nov-12 04:00N 35°13' E 139°43'510.8
2017-Nov-12 03:30N 35°11' E 139°49'1 1.0
2017-Nov-12 03:01N 35°10' E 139°49'611.5
2017-Nov-12 02:30N 35°13' E 139°43'0 0.5
2017-Nov-12 02:00N 35°13' E 139°43'611.1
2017-Nov-12 01:30N 35°10' E 139°49'0 0.5
2017-Nov-12 01:00N 35°10' E 139°49'611.4
2017-Nov-12 00:30N 35°13' E 139°43'0 0.5
2017-Nov-12 00:00N 35°13' E 139°43'4 7.0
2017-Nov-11 23:30N 35°12' E 139°47'2 4.9
2017-Nov-11 23:00N 35°10' E 139°49'510.1
2017-Nov-11 22:31N 35°13' E 139°44'1 1.8
2017-Nov-11 22:00N 35°13' E 139°43'4 8.8
2017-Nov-11 21:30N 35°11' E 139°48'1 2.9
2017-Nov-11 21:00N 35°10' E 139°49'0 0.0
2017-Nov-11 11:13N 35°10' E 139°49'0 0.0
2017-Nov-11 11:00N 35°10' E 139°49'4 8.3
2017-Nov-11 10:31N 35°13' E 139°45'2 3.7
2017-Nov-11 10:01N 35°13' E 139°43'510.7
2017-Nov-11 09:31N 35°11' E 139°48'0 0.6
2017-Nov-11 09:00N 35°10' E 139°49'611.3
2017-Nov-11 08:31N 35°13' E 139°43'1 1.2
2017-Nov-11 08:00N 35°13' E 139°44'510.7
2017-Nov-11 07:30N 35°10' E 139°49'0 0.2
2017-Nov-11 07:00N 35°10' E 139°49'611.6
2017-Nov-11 06:31N 35°13' E 139°43'0 0.5
2017-Nov-11 06:01N 35°13' E 139°43'5 9.3
2017-Nov-11 05:30N 35°11' E 139°48'0 1.0
2017-Nov-11 05:01N 35°11' E 139°48'510.3
2017-Nov-11 04:31N 35°13' E 139°43'0 0.0
2017-Nov-10 11:44N 35°13' E 139°43'0 1.2
2017-Nov-10 11:30N 35°13' E 139°43'611.4
2017-Nov-10 11:00N 35°10' E 139°49'4 8.0
2017-Nov-10 10:30N 35°12' E 139°45'2 4.0
2017-Nov-10 10:00N 35°13' E 139°43'510.7
2017-Nov-10 09:30N 35°11' E 139°49'0 0.3
2017-Nov-10 09:00N 35°10' E 139°49'511.1
2017-Nov-10 08:30N 35°13' E 139°43'1 1.0
2017-Nov-10 08:00N 35°13' E 139°44'510.8
2017-Nov-10 07:30N 35°10' E 139°49'0 0.1
2017-Nov-10 07:00N 35°10' E 139°49'611.7
2017-Nov-10 06:30N 35°13' E 139°43'0 0.6
2017-Nov-10 06:00N 35°13' E 139°43'0 0.0
2017-Nov-10 05:29N 35°13' E 139°43'3 5.7
2017-Nov-10 05:01N 35°12' E 139°46'3 6.3
2017-Nov-10 04:30N 35°10' E 139°49'0 0.0
2017-Nov-10 04:00N 35°10' E 139°49'3 5.9
2017-Nov-10 03:30N 35°12' E 139°46'3 5.9
2017-Nov-10 03:00N 35°13' E 139°43'0 0.0
2017-Nov-10 02:30N 35°13' E 139°43'0 0.4
2017-Nov-10 02:00N 35°13' E 139°43'510.8
2017-Nov-10 01:30N 35°11' E 139°49'1 1.0
2017-Nov-10 01:00N 35°10' E 139°49'611.7
2017-Nov-10 00:30N 35°13' E 139°43'0 0.5
2017-Nov-10 00:00N 35°13' E 139°43'  

Dump ship's entire track history